Meteorología y climatología de Navarra
Datos de la estación - Meteo Navarra

Estación de Aralar GN

Altitud 1344 m.


Datos desde el 30/06/2020 hasta el 01/07/2020 en horario solar
Los datos son PROVISIONALES

Anterior Página 1 de 1 Siguiente Descargar: Formato para Excel 2000 o superior   Formato csv   Formato para OpenOffice Calc
Fecha Temperatura Humedad relativa Radiación global Insolación Precipitación Vel. viento 10 m Vel. viento 10 m Dir. viento 10 m
ºC % W/m² s l/m² m/s km/h º
30/06/2020 0:00 10.0 100 0.0 0 0.0 6.9 24.8 340
30/06/2020 0:10 10.4 99 0.0 0 0.0 6.0 21.4 337
30/06/2020 0:20 10.7 96 0.0 0 0.0 4.5 16.3 333
30/06/2020 0:30 10.6 97 0.0 0 0.0 4.4 15.7 334
30/06/2020 0:40 10.7 87 0.0 0 0.0 4.3 15.6 341
30/06/2020 0:50 11.3 58 0.0 0 0.0 4.1 14.8 345
30/06/2020 1:00 12.5 34 0.0 0 0.0 3.9 14.2 340
30/06/2020 1:10 13.3 12 0.0 0 0.0 4.6 16.4 352
30/06/2020 1:20 13.8 10 0.0 0 0.0 4.5 16.0 353
30/06/2020 1:30 13.9 9 0.0 0 0.0 4.4 15.9 359
30/06/2020 1:40 13.9 11 0.0 0 0.0 4.5 16.2 356
30/06/2020 1:50 14.3 10 0.0 0 0.0 4.8 17.4 358
30/06/2020 2:00 14.1 10 0.0 0 0.0 5.6 20.2 350
30/06/2020 2:10 14.1 9 0.0 0 0.0 5.6 20.1 349
30/06/2020 2:20 14.1 8 0.0 0 0.0 4.9 17.6 352
30/06/2020 2:30 14.3 10 0.0 0 0.0 4.9 17.5 354
30/06/2020 2:40 14.6 9 0.0 0 0.0 5.0 18.1 353
30/06/2020 2:50 15.1 13 0.0 0 0.0 4.6 16.4 350
30/06/2020 3:00 15.2 28 0.0 0 0.0 4.3 15.3 345
30/06/2020 3:10 15.1 32 0.0 0 0.0 4.2 14.9 356
30/06/2020 3:20 15.0 33 0.0 0 0.0 3.4 12.1 349
30/06/2020 3:30 15.2 32 0.0 0 0.0 3.3 12.0 349
30/06/2020 3:40 15.3 27 0.0 0 0.0 3.3 11.7 350
30/06/2020 3:50 15.0 29 0.0 0 0.0 3.2 11.3 350
30/06/2020 4:00 14.9 29 0.0 0 0.0 2.9 10.5 350
30/06/2020 4:10 14.8 30 0.0 0 0.0 2.6 9.3 2
30/06/2020 4:20 15.1 26 0.0 0 0.0 2.0 7.3 0
30/06/2020 4:30 15.1 30 0.0 0 0.0 1.4 5.1 343
30/06/2020 4:40 15.7 35 0.0 0 0.0 1.3 4.7 354
30/06/2020 4:50 15.8 32 4.4 0 0.0 1.3 4.6 350
30/06/2020 5:00 15.9 39 26.0 94 0.0 0.3 0.9 343
30/06/2020 5:10 16.9 44 30.9 138 0.0 0.0 0.0 0
30/06/2020 5:20 16.9 47 69.7 600 0.0 0.4 1.4 175
30/06/2020 5:30 16.8 47 95.7 600 0.0 0.8 3.0 162
30/06/2020 5:40 16.8 49 123.1 600 0.0 1.4 4.9 172
30/06/2020 5:50 17.3 49 151.0 600 0.0 1.1 3.9 173
30/06/2020 6:00 17.7 49 180.6 600 0.0 0.9 3.3 167
30/06/2020 6:10 18.2 49 210.9 600 0.0 0.9 3.3 165
30/06/2020 6:20 18.0 46 241.3 600 0.0 0.7 2.7 154
30/06/2020 6:30 17.7 46 273.4 600 0.0 1.2 4.4 159
30/06/2020 6:40 17.8 47 304.8 600 0.0 1.7 6.0 153
30/06/2020 6:50 18.1 44 339.3 600 0.0 2.3 8.2 156
30/06/2020 7:00 17.5 40 371.3 600 0.0 2.7 9.9 157
30/06/2020 7:10 17.9 35 403.5 600 0.0 2.6 9.5 162
30/06/2020 7:20 18.3 35 436.2 600 0.0 3.7 13.4 167
30/06/2020 7:30 18.4 34 468.7 600 0.0 4.5 16.1 166
30/06/2020 7:40 18.0 33 507.5 600 0.0 5.1 18.3 171
30/06/2020 7:50 17.8 35 540.9 600 0.0 3.7 13.4 175
30/06/2020 8:00 18.0 42 573.0 600 0.0 3.5 12.5 186
30/06/2020 8:10 17.6 48 601.8 600 0.0 3.3 11.7 175
30/06/2020 8:20 18.0 57 632.1 600 0.0 2.7 9.8 177
30/06/2020 8:30 17.6 68 662.8 600 0.0 3.9 13.9 192
30/06/2020 8:40 17.4 76 691.9 600 0.0 3.9 14.0 196
30/06/2020 8:50 17.8 76 719.7 600 0.0 2.7 9.6 166
30/06/2020 9:00 18.5 74 749.3 600 0.0 2.7 9.6 169
30/06/2020 9:10 18.6 74 774.0 600 0.0 3.2 11.4 172
30/06/2020 9:20 18.7 75 781.9 600 0.0 3.5 12.6 171
30/06/2020 9:30 18.5 77 803.0 600 0.0 4.1 14.8 170
30/06/2020 9:40 18.9 77 824.0 600 0.0 4.2 14.9 172
30/06/2020 9:50 19.1 77 845.0 600 0.0 3.3 11.8 166
30/06/2020 10:00 18.8 78 867.0 600 0.0 3.7 13.2 161
30/06/2020 10:10 18.8 79 884.0 600 0.0 3.5 12.7 163
30/06/2020 10:20 18.8 79 903.0 600 0.0 3.6 12.9 159
30/06/2020 10:30 18.8 80 916.0 600 0.0 3.0 10.7 159
30/06/2020 10:40 19.8 75 930.0 600 0.0 2.9 10.6 167
30/06/2020 10:50 19.3 79 940.0 600 0.0 2.7 9.8 148
30/06/2020 11:00 18.9 80 951.0 600 0.0 2.5 9.0 154
30/06/2020 11:10 19.5 76 964.0 600 0.0 2.3 8.4 167
30/06/2020 11:20 20.5 73 972.0 600 0.0 2.6 9.5 162
30/06/2020 11:30 20.7 73 977.0 600 0.0 2.8 9.9 166
30/06/2020 11:40 20.7 74 983.0 600 0.0 3.2 11.4 159
30/06/2020 11:50 20.5 75 986.0 600 0.0 2.4 8.6 153
30/06/2020 12:00 20.8 74 991.0 600 0.0 2.9 10.5 159
30/06/2020 12:10 20.7 73 992.0 600 0.0 2.4 8.6 161
30/06/2020 12:20 20.8 72 990.0 600 0.0 2.6 9.3 146
30/06/2020 12:30 21.1 68 992.0 600 0.0 2.3 8.3 136
30/06/2020 12:40 21.3 69 989.0 600 0.0 2.9 10.3 150
30/06/2020 12:50 21.3 69 985.0 600 0.0 2.2 8.1 153
30/06/2020 13:00 21.7 66 955.0 576 0.0 1.8 6.3 143
30/06/2020 13:10 22.0 67 876.0 530 0.0 1.6 5.6 138
30/06/2020 13:20 21.6 67 973.0 600 0.0 1.3 4.6 127
30/06/2020 13:30 22.3 68 978.0 600 0.0 1.7 6.0 127
30/06/2020 13:40 22.2 67 960.0 600 0.0 1.4 5.0 75
30/06/2020 13:50 20.8 75 932.0 600 0.0 1.1 4.0 58
30/06/2020 14:00 21.3 73 918.0 600 0.0 1.1 3.9 111
30/06/2020 14:10 21.6 73 894.0 600 0.0 1.3 4.6 69
30/06/2020 14:20 21.9 70 867.0 600 0.0 1.8 6.3 126
30/06/2020 14:30 22.6 66 847.0 600 0.0 2.1 7.5 137
30/06/2020 14:40 22.7 63 827.0 600 0.0 2.7 9.5 139
30/06/2020 14:50 22.3 67 802.0 600 0.0 1.6 5.8 77
30/06/2020 15:00 21.5 74 777.8 600 0.0 1.6 5.7 123
30/06/2020 15:10 22.3 71 756.1 600 0.0 1.7 6.0 127
30/06/2020 15:20 21.2 77 748.8 600 0.0 1.7 5.9 48
30/06/2020 15:30 21.3 77 722.8 600 0.0 1.3 4.5 63
30/06/2020 15:40 21.5 70 698.1 600 0.0 2.0 7.1 132
30/06/2020 15:50 22.4 69 637.0 554 0.0 2.4 8.7 162
30/06/2020 16:00 22.2 72 640.1 600 0.0 1.7 6.1 119
30/06/2020 16:10 22.1 69 618.3 600 0.0 3.3 11.7 158
30/06/2020 16:20 22.5 70 580.2 600 0.0 2.1 7.4 145
30/06/2020 16:30 22.7 69 551.8 600 0.0 4.0 14.5 177
30/06/2020 16:40 22.4 70 512.1 596 0.0 2.6 9.2 159
30/06/2020 16:50 22.2 76 454.8 566 0.0 1.0 3.5 137
30/06/2020 17:00 21.9 76 446.7 600 0.0 2.5 9.0 170
30/06/2020 17:10 21.7 78 419.1 600 0.0 2.6 9.5 173
30/06/2020 17:20 21.7 77 406.2 600 0.0 1.3 4.6 224
30/06/2020 17:30 21.5 77 379.6 584 0.0 1.0 3.7 231
30/06/2020 17:40 21.4 78 170.7 158 0.0 1.5 5.5 215
30/06/2020 17:50 20.9 81 79.8 0 0.0 2.8 10.2 193
30/06/2020 18:00 20.9 79 93.5 16 0.0 3.4 12.2 182
30/06/2020 18:10 21.6 71 185.4 418 0.0 2.8 9.9 172
30/06/2020 18:20 22.7 68 176.3 376 0.0 3.2 11.3 176
30/06/2020 18:30 22.2 74 115.6 148 0.0 3.0 10.9 169
30/06/2020 18:40 20.6 79 93.1 0 0.0 4.3 15.6 185
30/06/2020 18:50 20.7 81 79.5 0 0.0 3.1 11.2 182
30/06/2020 19:00 20.1 84 28.5 0 0.0 4.4 15.7 186
30/06/2020 19:10 19.1 92 27.9 0 0.4 5.6 20.1 199
30/06/2020 19:20 18.4 94 32.5 0 0.3 5.5 19.8 183
30/06/2020 19:30 18.5 90 36.3 482 0.0 5.8 20.9 178
30/06/2020 19:40 18.8 84 28.0 104 0.0 5.5 19.7 170
30/06/2020 19:50 18.8 82 15.4 0 0.0 5.4 19.3 164
30/06/2020 20:00 19.0 79 0.0 0 0.0 4.7 16.9 155
30/06/2020 20:10 19.5 73 0.0 0 0.0 4.3 15.4 147
30/06/2020 20:20 19.6 70 0.0 0 0.0 4.0 14.3 138
30/06/2020 20:30 19.1 78 0.0 0 0.0 4.2 15.3 149
30/06/2020 20:40 19.2 75 0.0 0 0.0 4.7 16.8 151
30/06/2020 20:50 19.1 77 0.0 0 0.0 4.4 15.8 146
30/06/2020 21:00 19.4 77 0.0 0 0.0 4.4 15.8 154
30/06/2020 21:10 18.7 77 0.0 0 0.0 5.0 18.0 165
30/06/2020 21:20 19.3 73 0.0 0 0.0 4.9 17.5 169
30/06/2020 21:30 19.3 71 0.0 0 0.0 5.4 19.4 178
30/06/2020 21:40 19.1 73 0.0 0 0.0 6.6 23.6 184
30/06/2020 21:50 19.4 65 0.0 0 0.0 8.2 29.5 196
30/06/2020 22:00 19.1 68 0.0 0 0.0 6.4 23.0 183
30/06/2020 22:10 18.7 71 0.0 0 0.0 6.1 21.9 172
30/06/2020 22:20 18.5 71 0.0 0 0.0 4.9 17.8 174
30/06/2020 22:30 18.4 73 0.0 0 0.0 3.7 13.4 156
30/06/2020 22:40 18.3 77 0.0 0 0.0 3.4 12.2 162
30/06/2020 22:50 18.7 69 0.0 0 0.0 5.2 18.9 178
30/06/2020 23:00 18.7 66 0.0 0 0.0 6.6 23.7 182
30/06/2020 23:10 18.9 62 0.0 0 0.0 7.2 25.8 185
30/06/2020 23:20 19.2 59 0.0 0 0.0 6.0 21.7 182
30/06/2020 23:30 18.8 63 0.0 0 0.0 5.4 19.4 182
30/06/2020 23:40 18.7 64 0.0 0 0.0 5.4 19.5 185
30/06/2020 23:50 18.8 64 0.0 0 0.0 5.1 18.3 187
Anterior Página 1 de 1 Siguiente
Los datos de precipitación registrados en estaciones que están en cumbres son inferiores a lo real, como consecuencia del efecto del viento y de la nieve.


NOTA: Tipo de datos según el color:
   - Valores diarios o 10 minutos correctos
   - Valores diarios calculados a partir de un número de datos 10 minutos menor que 144 y mayor que 120, o de un número de datos semihorarios menor que 48 y mayor que 40 (caso de las estaciones de INTIA y del Ministerio)
   - Valores diez minutos estimados


Contacto        Enlaces        Aviso legal